Aérodrome :
LOGIN :

S'inscrire | Disclaimer

   EN    FR    IT 

 










Légende :    VFR   VFR Marginal   IFR   IFR Intensif   IFR Très Intensif
Visi : 
Plafond : 
>= 8 km
>= 3000ft
5 à 8 km
1000 à 3000 ft
1500m à 5 km
500 à 1000 ft
800 à 1500m
200 à 500 ft
< 800m
< 200 ft
Symboles :   Orages  Brouillard  Fortes neiges  Fortes précipitations  Vent > 20 kt
SIGMETs :   Divers  Orages  Givrage  Turbulence  Onde Orograph.  Cendres Volcan.






- Altitude de l'aérodrome : 52 ft
- Code IATA : RNN


EKRN - Bornholm Ronne

DERNIER METAR :
  • 281350Z AUTO 20012KT 9999 FEW013/// FEW020/// 12/10 Q1007

METARs EXPIRÉS :
  • 281250Z AUTO 21012KT 9999 FEW014/// BKN024/// 12/09 Q1006
  • 281220Z AUTO 22015KT 9999 FEW014/// BKN032/// 12/10 Q1006
  • 281150Z AUTO 22016KT 9999 FEW011/// FEW013/// FEW020/// SCT024/// 12/10 Q1006

TAF TAF EKRN
Valide du 28 à 12h jusqu'au 28 à 20h UTC


281121Z 2812/2820 20020KT 9999 SCT020
TEMPO 2812/2815 BKN012 SCT020TCU
TEMPO 2815/2820 SCT020TCU



MET'MAP, la Météo Aéronautique d'un coup d'oeil ! - Copyright ORBIFLY Décembre 2007 - Disclaimer

ORBIFLY MET'MAP TEAM :

Programmation & Développement : Alexandra Zaïnal
Sur une idée originale de : Baudouin d'Aumeries
Assistance à la programmation : Marc-Olivier Méhu
Soutien technique & logistique : Manuel Goepfert

Contact : metmap@orbifly.com




SOURCES & CREDITS :

   NOAA